sensor_id;sensor_type;location;lat;lon;timestamp;temperature;humidity
15625;DHT22;7912;51.376;6.126;2024-03-29T00:02:12;11.60;96.50
15625;DHT22;7912;51.376;6.126;2024-03-29T00:04:38;11.60;96.50
15625;DHT22;7912;51.376;6.126;2024-03-29T00:07:05;11.60;96.60
15625;DHT22;7912;51.376;6.126;2024-03-29T00:09:31;11.60;96.70
15625;DHT22;7912;51.376;6.126;2024-03-29T00:11:57;11.60;96.70
15625;DHT22;7912;51.376;6.126;2024-03-29T00:14:23;11.60;96.80
15625;DHT22;7912;51.376;6.126;2024-03-29T00:16:49;11.60;96.80
15625;DHT22;7912;51.376;6.126;2024-03-29T00:19:19;11.60;97.20
15625;DHT22;7912;51.376;6.126;2024-03-29T00:22:04;11.60;96.90
15625;DHT22;7912;51.376;6.126;2024-03-29T00:24:30;11.60;97.00
15625;DHT22;7912;51.376;6.126;2024-03-29T00:26:56;11.60;96.90
15625;DHT22;7912;51.376;6.126;2024-03-29T00:29:22;11.60;97.00
15625;DHT22;7912;51.376;6.126;2024-03-29T00:31:49;11.60;97.00
15625;DHT22;7912;51.376;6.126;2024-03-29T00:34:15;11.60;97.00
15625;DHT22;7912;51.376;6.126;2024-03-29T00:36:41;11.60;97.10
15625;DHT22;7912;51.376;6.126;2024-03-29T00:39:07;11.60;97.10
15625;DHT22;7912;51.376;6.126;2024-03-29T00:41:37;11.60;97.10
15625;DHT22;7912;51.376;6.126;2024-03-29T00:44:03;11.60;97.20
15625;DHT22;7912;51.376;6.126;2024-03-29T00:46:29;11.60;97.10
15625;DHT22;7912;51.376;6.126;2024-03-29T00:48:55;11.60;97.20
15625;DHT22;7912;51.376;6.126;2024-03-29T00:51:21;11.60;97.20
15625;DHT22;7912;51.376;6.126;2024-03-29T00:53:47;11.60;97.20
15625;DHT22;7912;51.376;6.126;2024-03-29T00:56:15;11.60;97.30
15625;DHT22;7912;51.376;6.126;2024-03-29T00:58:41;11.60;97.30
15625;DHT22;7912;51.376;6.126;2024-03-29T01:01:07;11.60;97.30
15625;DHT22;7912;51.376;6.126;2024-03-29T01:03:33;11.60;97.30
15625;DHT22;7912;51.376;6.126;2024-03-29T01:06:00;11.60;97.30
15625;DHT22;7912;51.376;6.126;2024-03-29T01:08:26;11.60;97.40
15625;DHT22;7912;51.376;6.126;2024-03-29T01:14:41;11.60;97.50
15625;DHT22;7912;51.376;6.126;2024-03-29T01:17:07;11.70;97.50
15625;DHT22;7912;51.376;6.126;2024-03-29T01:19:33;11.70;97.60
15625;DHT22;7912;51.376;6.126;2024-03-29T01:21:59;11.60;97.70
15625;DHT22;7912;51.376;6.126;2024-03-29T01:24:25;11.70;97.80
15625;DHT22;7912;51.376;6.126;2024-03-29T01:26:51;11.70;97.80
15625;DHT22;7912;51.376;6.126;2024-03-29T01:29:17;11.70;97.80
15625;DHT22;7912;51.376;6.126;2024-03-29T01:31:43;11.70;97.90
15625;DHT22;7912;51.376;6.126;2024-03-29T01:34:10;11.70;97.90
15625;DHT22;7912;51.376;6.126;2024-03-29T01:36:36;11.70;98.00
15625;DHT22;7912;51.376;6.126;2024-03-29T01:39:02;11.80;98.10
15625;DHT22;7912;51.376;6.126;2024-03-29T01:41:29;11.80;98.20
15625;DHT22;7912;51.376;6.126;2024-03-29T01:43:55;11.80;98.20
15625;DHT22;7912;51.376;6.126;2024-03-29T01:46:25;11.80;98.20
15625;DHT22;7912;51.376;6.126;2024-03-29T01:48:53;11.80;98.30
15625;DHT22;7912;51.376;6.126;2024-03-29T01:51:21;11.90;98.30
15625;DHT22;7912;51.376;6.126;2024-03-29T01:53:50;11.90;98.30
15625;DHT22;7912;51.376;6.126;2024-03-29T01:56:21;11.90;98.30
15625;DHT22;7912;51.376;6.126;2024-03-29T01:58:51;11.90;98.40
15625;DHT22;7912;51.376;6.126;2024-03-29T02:01:20;11.90;98.50
15625;DHT22;7912;51.376;6.126;2024-03-29T02:03:47;11.90;98.50
15625;DHT22;7912;51.376;6.126;2024-03-29T02:06:13;11.90;98.60
15625;DHT22;7912;51.376;6.126;2024-03-29T02:08:40;11.90;98.60
15625;DHT22;7912;51.376;6.126;2024-03-29T02:11:06;11.90;98.70
15625;DHT22;7912;51.376;6.126;2024-03-29T02:13:32;11.90;98.70
15625;DHT22;7912;51.376;6.126;2024-03-29T02:15:58;11.90;98.70
15625;DHT22;7912;51.376;6.126;2024-03-29T02:18:25;11.90;98.80
15625;DHT22;7912;51.376;6.126;2024-03-29T02:20:52;11.90;98.90
15625;DHT22;7912;51.376;6.126;2024-03-29T02:23:20;11.90;98.90
15625;DHT22;7912;51.376;6.126;2024-03-29T02:25:52;11.90;99.00
15625;DHT22;7912;51.376;6.126;2024-03-29T02:28:18;11.90;99.00
15625;DHT22;7912;51.376;6.126;2024-03-29T02:30:48;11.90;99.00
15625;DHT22;7912;51.376;6.126;2024-03-29T02:33:15;11.90;99.00
15625;DHT22;7912;51.376;6.126;2024-03-29T02:35:41;11.90;99.10
15625;DHT22;7912;51.376;6.126;2024-03-29T02:38:07;11.90;99.10
15625;DHT22;7912;51.376;6.126;2024-03-29T02:40:33;12.00;99.20
15625;DHT22;7912;51.376;6.126;2024-03-29T02:43:00;12.00;99.30
15625;DHT22;7912;51.376;6.126;2024-03-29T02:45:26;12.00;99.40
15625;DHT22;7912;51.376;6.126;2024-03-29T02:47:52;12.00;99.50
15625;DHT22;7912;51.376;6.126;2024-03-29T02:50:18;12.00;99.80
15625;DHT22;7912;51.376;6.126;2024-03-29T02:52:45;12.00;99.90
15625;DHT22;7912;51.376;6.126;2024-03-29T02:55:11;12.00;99.90
15625;DHT22;7912;51.376;6.126;2024-03-29T02:57:37;12.00;99.90
15625;DHT22;7912;51.376;6.126;2024-03-29T03:00:05;12.00;99.90
15625;DHT22;7912;51.376;6.126;2024-03-29T03:02:32;12.00;99.90
15625;DHT22;7912;51.376;6.126;2024-03-29T03:04:58;12.00;99.90
15625;DHT22;7912;51.376;6.126;2024-03-29T03:07:27;12.00;99.90
15625;DHT22;7912;51.376;6.126;2024-03-29T03:10:12;11.90;99.90
15625;DHT22;7912;51.376;6.126;2024-03-29T03:12:57;11.90;99.90
15625;DHT22;7912;51.376;6.126;2024-03-29T03:15:23;11.90;99.90
15625;DHT22;7912;51.376;6.126;2024-03-29T03:17:49;11.90;99.90
15625;DHT22;7912;51.376;6.126;2024-03-29T03:20:15;11.90;99.90
15625;DHT22;7912;51.376;6.126;2024-03-29T03:22:42;11.90;99.90
15625;DHT22;7912;51.376;6.126;2024-03-29T03:25:08;11.90;99.90
15625;DHT22;7912;51.376;6.126;2024-03-29T03:27:34;11.90;99.90
15625;DHT22;7912;51.376;6.126;2024-03-29T03:30:04;11.80;99.90
15625;DHT22;7912;51.376;6.126;2024-03-29T03:32:31;11.80;99.90
15625;DHT22;7912;51.376;6.126;2024-03-29T03:34:57;11.80;99.90
15625;DHT22;7912;51.376;6.126;2024-03-29T03:37:23;11.80;99.90
15625;DHT22;7912;51.376;6.126;2024-03-29T03:39:49;11.80;99.90
15625;DHT22;7912;51.376;6.126;2024-03-29T03:42:15;11.70;99.90
15625;DHT22;7912;51.376;6.126;2024-03-29T03:44:41;11.70;99.90
15625;DHT22;7912;51.376;6.126;2024-03-29T03:47:07;11.70;99.90
15625;DHT22;7912;51.376;6.126;2024-03-29T03:49:34;11.60;99.90
15625;DHT22;7912;51.376;6.126;2024-03-29T03:52:00;11.60;99.90
15625;DHT22;7912;51.376;6.126;2024-03-29T03:54:26;11.60;99.90
15625;DHT22;7912;51.376;6.126;2024-03-29T03:56:52;11.50;99.90
15625;DHT22;7912;51.376;6.126;2024-03-29T03:59:19;11.50;99.90
15625;DHT22;7912;51.376;6.126;2024-03-29T04:01:45;11.50;99.90
15625;DHT22;7912;51.376;6.126;2024-03-29T04:04:11;11.50;99.90
15625;DHT22;7912;51.376;6.126;2024-03-29T04:06:37;11.40;99.90
15625;DHT22;7912;51.376;6.126;2024-03-29T04:09:03;11.40;99.90
15625;DHT22;7912;51.376;6.126;2024-03-29T04:11:30;11.40;99.90
15625;DHT22;7912;51.376;6.126;2024-03-29T04:13:56;11.40;99.90
15625;DHT22;7912;51.376;6.126;2024-03-29T04:16:22;11.40;99.90
15625;DHT22;7912;51.376;6.126;2024-03-29T04:18:48;11.40;99.90
15625;DHT22;7912;51.376;6.126;2024-03-29T04:21:14;11.30;99.90
15625;DHT22;7912;51.376;6.126;2024-03-29T04:23:40;11.30;99.90
15625;DHT22;7912;51.376;6.126;2024-03-29T04:26:07;11.30;99.90
15625;DHT22;7912;51.376;6.126;2024-03-29T04:28:33;11.30;99.90
15625;DHT22;7912;51.376;6.126;2024-03-29T04:31:00;11.30;99.90
15625;DHT22;7912;51.376;6.126;2024-03-29T04:33:27;11.30;99.90
15625;DHT22;7912;51.376;6.126;2024-03-29T04:35:58;11.20;99.90
15625;DHT22;7912;51.376;6.126;2024-03-29T04:38:28;11.20;99.90
15625;DHT22;7912;51.376;6.126;2024-03-29T04:40:56;11.20;99.90
15625;DHT22;7912;51.376;6.126;2024-03-29T04:43:28;11.20;99.90
15625;DHT22;7912;51.376;6.126;2024-03-29T04:46:13;11.20;99.90
15625;DHT22;7912;51.376;6.126;2024-03-29T04:48:41;11.20;99.90
15625;DHT22;7912;51.376;6.126;2024-03-29T04:51:08;11.20;99.90
15625;DHT22;7912;51.376;6.126;2024-03-29T04:53:36;11.20;99.90
15625;DHT22;7912;51.376;6.126;2024-03-29T04:56:03;11.10;99.90
15625;DHT22;7912;51.376;6.126;2024-03-29T04:58:30;11.10;99.90
15625;DHT22;7912;51.376;6.126;2024-03-29T05:00:56;11.10;99.90
15625;DHT22;7912;51.376;6.126;2024-03-29T05:03:23;11.10;99.90
15625;DHT22;7912;51.376;6.126;2024-03-29T05:05:50;11.10;99.90
15625;DHT22;7912;51.376;6.126;2024-03-29T05:08:17;11.10;99.90
15625;DHT22;7912;51.376;6.126;2024-03-29T05:10:45;11.10;99.90
15625;DHT22;7912;51.376;6.126;2024-03-29T05:13:12;11.10;99.90
15625;DHT22;7912;51.376;6.126;2024-03-29T05:15:38;11.00;99.90
15625;DHT22;7912;51.376;6.126;2024-03-29T05:18:05;11.00;99.90
15625;DHT22;7912;51.376;6.126;2024-03-29T05:20:31;11.00;99.90
15625;DHT22;7912;51.376;6.126;2024-03-29T05:22:58;11.00;99.90
15625;DHT22;7912;51.376;6.126;2024-03-29T05:25:25;11.00;99.90
15625;DHT22;7912;51.376;6.126;2024-03-29T05:27:52;11.00;99.90
15625;DHT22;7912;51.376;6.126;2024-03-29T05:30:18;11.00;99.90
15625;DHT22;7912;51.376;6.126;2024-03-29T05:32:45;11.00;99.90
15625;DHT22;7912;51.376;6.126;2024-03-29T05:35:11;11.00;99.90
15625;DHT22;7912;51.376;6.126;2024-03-29T05:37:39;10.90;99.90
15625;DHT22;7912;51.376;6.126;2024-03-29T05:40:06;10.90;99.90
15625;DHT22;7912;51.376;6.126;2024-03-29T05:42:33;10.90;99.90
15625;DHT22;7912;51.376;6.126;2024-03-29T05:45:01;10.90;99.90
15625;DHT22;7912;51.376;6.126;2024-03-29T05:47:30;10.90;99.90
15625;DHT22;7912;51.376;6.126;2024-03-29T05:49:56;10.90;99.90
15625;DHT22;7912;51.376;6.126;2024-03-29T05:52:22;10.90;99.90
15625;DHT22;7912;51.376;6.126;2024-03-29T05:54:49;10.90;99.90
15625;DHT22;7912;51.376;6.126;2024-03-29T05:57:15;10.90;99.90
15625;DHT22;7912;51.376;6.126;2024-03-29T05:59:42;10.90;99.90
15625;DHT22;7912;51.376;6.126;2024-03-29T06:02:08;10.90;99.90
15625;DHT22;7912;51.376;6.126;2024-03-29T06:04:35;10.90;99.90
15625;DHT22;7912;51.376;6.126;2024-03-29T06:07:04;10.90;99.90
15625;DHT22;7912;51.376;6.126;2024-03-29T06:09:31;11.00;99.90
15625;DHT22;7912;51.376;6.126;2024-03-29T06:11:59;11.00;99.90
15625;DHT22;7912;51.376;6.126;2024-03-29T06:14:26;11.00;99.90
15625;DHT22;7912;51.376;6.126;2024-03-29T06:17:11;11.00;99.90
15625;DHT22;7912;51.376;6.126;2024-03-29T06:19:53;11.00;99.90
15625;DHT22;7912;51.376;6.126;2024-03-29T06:22:23;11.00;99.90
15625;DHT22;7912;51.376;6.126;2024-03-29T06:24:51;11.10;99.90
15625;DHT22;7912;51.376;6.126;2024-03-29T06:27:21;11.10;99.90
15625;DHT22;7912;51.376;6.126;2024-03-29T06:29:49;11.10;99.90
15625;DHT22;7912;51.376;6.126;2024-03-29T06:32:16;11.10;99.90
15625;DHT22;7912;51.376;6.126;2024-03-29T06:34:47;11.10;99.90
15625;DHT22;7912;51.376;6.126;2024-03-29T06:37:13;11.10;99.90
15625;DHT22;7912;51.376;6.126;2024-03-29T06:39:40;11.20;99.90
15625;DHT22;7912;51.376;6.126;2024-03-29T06:42:07;11.20;99.90
15625;DHT22;7912;51.376;6.126;2024-03-29T06:44:34;11.20;99.90
15625;DHT22;7912;51.376;6.126;2024-03-29T06:47:01;11.20;99.90
15625;DHT22;7912;51.376;6.126;2024-03-29T06:49:27;11.30;99.90
15625;DHT22;7912;51.376;6.126;2024-03-29T06:51:53;11.30;99.90
15625;DHT22;7912;51.376;6.126;2024-03-29T06:54:22;11.30;99.90
15625;DHT22;7912;51.376;6.126;2024-03-29T06:56:53;11.40;99.90
15625;DHT22;7912;51.376;6.126;2024-03-29T06:59:19;11.40;99.90
15625;DHT22;7912;51.376;6.126;2024-03-29T07:01:46;11.40;99.90
15625;DHT22;7912;51.376;6.126;2024-03-29T07:04:23;11.50;99.90
15625;DHT22;7912;51.376;6.126;2024-03-29T07:06:50;11.60;99.90
15625;DHT22;7912;51.376;6.126;2024-03-29T07:09:18;11.60;99.90
15625;DHT22;7912;51.376;6.126;2024-03-29T07:11:50;11.70;99.90
15625;DHT22;7912;51.376;6.126;2024-03-29T07:14:18;11.70;99.90
15625;DHT22;7912;51.376;6.126;2024-03-29T07:16:45;11.80;99.90
15625;DHT22;7912;51.376;6.126;2024-03-29T07:19:13;11.90;99.90
15625;DHT22;7912;51.376;6.126;2024-03-29T07:21:43;12.10;99.90
15625;DHT22;7912;51.376;6.126;2024-03-29T07:24:09;12.20;99.90
15625;DHT22;7912;51.376;6.126;2024-03-29T07:26:36;12.30;99.90
15625;DHT22;7912;51.376;6.126;2024-03-29T07:32:13;12.40;99.90
15625;DHT22;7912;51.376;6.126;2024-03-29T07:34:43;12.50;99.90
15625;DHT22;7912;51.376;6.126;2024-03-29T07:37:09;12.60;99.90
15625;DHT22;7912;51.376;6.126;2024-03-29T07:39:41;12.60;99.90
15625;DHT22;7912;51.376;6.126;2024-03-29T07:42:08;12.70;99.90
15625;DHT22;7912;51.376;6.126;2024-03-29T07:44:35;12.70;99.90
15625;DHT22;7912;51.376;6.126;2024-03-29T07:47:01;12.80;99.90
15625;DHT22;7912;51.376;6.126;2024-03-29T07:49:27;12.80;99.90
15625;DHT22;7912;51.376;6.126;2024-03-29T07:51:53;12.90;99.90
15625;DHT22;7912;51.376;6.126;2024-03-29T07:54:19;13.00;99.90
15625;DHT22;7912;51.376;6.126;2024-03-29T07:56:46;13.00;99.90
15625;DHT22;7912;51.376;6.126;2024-03-29T07:59:12;13.10;99.90
15625;DHT22;7912;51.376;6.126;2024-03-29T08:01:39;13.10;99.90
15625;DHT22;7912;51.376;6.126;2024-03-29T08:04:07;13.20;99.90
15625;DHT22;7912;51.376;6.126;2024-03-29T08:06:33;13.30;99.90
15625;DHT22;7912;51.376;6.126;2024-03-29T08:09:00;13.40;99.90
15625;DHT22;7912;51.376;6.126;2024-03-29T08:11:26;13.60;99.90
15625;DHT22;7912;51.376;6.126;2024-03-29T08:14:04;13.70;99.90
15625;DHT22;7912;51.376;6.126;2024-03-29T08:16:30;13.80;99.90
15625;DHT22;7912;51.376;6.126;2024-03-29T08:18:56;13.90;99.90
15625;DHT22;7912;51.376;6.126;2024-03-29T08:21:23;14.10;99.90
15625;DHT22;7912;51.376;6.126;2024-03-29T08:23:53;14.20;99.90
15625;DHT22;7912;51.376;6.126;2024-03-29T08:26:21;14.30;99.90
15625;DHT22;7912;51.376;6.126;2024-03-29T08:28:48;14.40;99.90
15625;DHT22;7912;51.376;6.126;2024-03-29T08:31:15;14.50;99.90
15625;DHT22;7912;51.376;6.126;2024-03-29T08:33:41;14.60;99.90
15625;DHT22;7912;51.376;6.126;2024-03-29T08:36:09;14.70;99.90
15625;DHT22;7912;51.376;6.126;2024-03-29T08:38:39;14.70;99.90
15625;DHT22;7912;51.376;6.126;2024-03-29T08:41:08;14.80;99.90
15625;DHT22;7912;51.376;6.126;2024-03-29T08:43:35;14.90;99.90
15625;DHT22;7912;51.376;6.126;2024-03-29T08:46:01;14.90;99.90
15625;DHT22;7912;51.376;6.126;2024-03-29T08:48:28;15.00;99.90
15625;DHT22;7912;51.376;6.126;2024-03-29T08:50:55;15.00;99.90
15625;DHT22;7912;51.376;6.126;2024-03-29T08:53:24;15.00;99.90
15625;DHT22;7912;51.376;6.126;2024-03-29T08:55:53;15.10;99.90
15625;DHT22;7912;51.376;6.126;2024-03-29T08:58:19;15.20;99.90
15625;DHT22;7912;51.376;6.126;2024-03-29T09:00:55;15.30;99.90
15625;DHT22;7912;51.376;6.126;2024-03-29T09:03:23;15.40;99.90
15625;DHT22;7912;51.376;6.126;2024-03-29T09:05:50;15.50;99.90
15625;DHT22;7912;51.376;6.126;2024-03-29T09:08:17;15.60;99.90
15625;DHT22;7912;51.376;6.126;2024-03-29T09:10:44;15.60;99.90
15625;DHT22;7912;51.376;6.126;2024-03-29T09:13:10;15.70;99.90
15625;DHT22;7912;51.376;6.126;2024-03-29T09:15:37;15.70;99.90
15625;DHT22;7912;51.376;6.126;2024-03-29T09:18:04;15.80;99.90
15625;DHT22;7912;51.376;6.126;2024-03-29T09:20:43;15.80;99.90
15625;DHT22;7912;51.376;6.126;2024-03-29T09:23:11;15.80;99.90
15625;DHT22;7912;51.376;6.126;2024-03-29T09:25:41;15.90;99.90
15625;DHT22;7912;51.376;6.126;2024-03-29T09:28:07;15.90;99.90
15625;DHT22;7912;51.376;6.126;2024-03-29T09:30:35;16.00;99.90
15625;DHT22;7912;51.376;6.126;2024-03-29T09:33:02;16.10;99.90
15625;DHT22;7912;51.376;6.126;2024-03-29T09:35:32;16.20;99.90
15625;DHT22;7912;51.376;6.126;2024-03-29T09:37:59;16.30;99.90
15625;DHT22;7912;51.376;6.126;2024-03-29T09:40:26;16.40;99.90
15625;DHT22;7912;51.376;6.126;2024-03-29T09:42:59;16.50;99.90
15625;DHT22;7912;51.376;6.126;2024-03-29T09:45:33;16.60;99.90
15625;DHT22;7912;51.376;6.126;2024-03-29T09:48:07;16.70;99.90
15625;DHT22;7912;51.376;6.126;2024-03-29T09:50:37;16.90;99.90
15625;DHT22;7912;51.376;6.126;2024-03-29T09:53:07;17.10;99.90
15625;DHT22;7912;51.376;6.126;2024-03-29T09:55:36;17.20;99.90
15625;DHT22;7912;51.376;6.126;2024-03-29T09:58:05;17.40;99.90
15625;DHT22;7912;51.376;6.126;2024-03-29T10:00:31;17.50;99.90
15625;DHT22;7912;51.376;6.126;2024-03-29T10:02:57;17.70;99.90
15625;DHT22;7912;51.376;6.126;2024-03-29T10:05:26;17.80;99.90
15625;DHT22;7912;51.376;6.126;2024-03-29T10:07:54;17.70;99.90
15625;DHT22;7912;51.376;6.126;2024-03-29T10:10:20;17.80;99.90
15625;DHT22;7912;51.376;6.126;2024-03-29T10:12:46;17.70;99.90
15625;DHT22;7912;51.376;6.126;2024-03-29T10:15:12;17.80;99.90
15625;DHT22;7912;51.376;6.126;2024-03-29T10:17:47;17.70;99.90
15625;DHT22;7912;51.376;6.126;2024-03-29T10:20:17;17.70;99.90
15625;DHT22;7912;51.376;6.126;2024-03-29T10:22:44;17.70;99.90
15625;DHT22;7912;51.376;6.126;2024-03-29T10:25:13;17.60;99.90
15625;DHT22;7912;51.376;6.126;2024-03-29T10:27:40;17.60;99.90
15625;DHT22;7912;51.376;6.126;2024-03-29T10:30:07;17.60;99.90
15625;DHT22;7912;51.376;6.126;2024-03-29T10:32:38;17.60;99.90
15625;DHT22;7912;51.376;6.126;2024-03-29T10:35:09;17.60;99.90
15625;DHT22;7912;51.376;6.126;2024-03-29T10:37:36;17.60;99.90
15625;DHT22;7912;51.376;6.126;2024-03-29T10:40:11;17.70;99.90
15625;DHT22;7912;51.376;6.126;2024-03-29T10:42:41;17.70;99.90
15625;DHT22;7912;51.376;6.126;2024-03-29T10:45:10;17.80;99.90
15625;DHT22;7912;51.376;6.126;2024-03-29T10:47:36;17.80;99.90
15625;DHT22;7912;51.376;6.126;2024-03-29T10:50:04;17.80;99.90
15625;DHT22;7912;51.376;6.126;2024-03-29T10:52:31;17.80;99.90
15625;DHT22;7912;51.376;6.126;2024-03-29T10:54:59;17.90;99.90
15625;DHT22;7912;51.376;6.126;2024-03-29T10:57:27;17.90;99.90
15625;DHT22;7912;51.376;6.126;2024-03-29T11:05:12;18.20;99.90
15625;DHT22;7912;51.376;6.126;2024-03-29T11:07:42;18.20;99.90
15625;DHT22;7912;51.376;6.126;2024-03-29T11:10:24;18.30;99.90
15625;DHT22;7912;51.376;6.126;2024-03-29T11:12:58;18.30;99.90
15625;DHT22;7912;51.376;6.126;2024-03-29T11:15:30;18.30;99.90
15625;DHT22;7912;51.376;6.126;2024-03-29T11:17:57;18.30;99.90
15625;DHT22;7912;51.376;6.126;2024-03-29T11:20:28;18.40;99.90
15625;DHT22;7912;51.376;6.126;2024-03-29T11:23:08;18.50;99.90
15625;DHT22;7912;51.376;6.126;2024-03-29T11:25:49;18.80;99.90
15625;DHT22;7912;51.376;6.126;2024-03-29T11:30:53;19.40;99.90
15625;DHT22;7912;51.376;6.126;2024-03-29T11:38:52;19.90;99.90
15625;DHT22;7912;51.376;6.126;2024-03-29T11:41:27;19.90;99.60
15625;DHT22;7912;51.376;6.126;2024-03-29T11:43:55;20.00;99.00
15625;DHT22;7912;51.376;6.126;2024-03-29T11:46:23;20.00;99.50
15625;DHT22;7912;51.376;6.126;2024-03-29T11:48:50;19.90;98.80
15625;DHT22;7912;51.376;6.126;2024-03-29T11:51:22;19.90;98.80
15625;DHT22;7912;51.376;6.126;2024-03-29T11:53:50;19.80;98.60
15625;DHT22;7912;51.376;6.126;2024-03-29T11:56:18;19.80;98.80
15625;DHT22;7912;51.376;6.126;2024-03-29T11:58:46;19.70;98.60
15625;DHT22;7912;51.376;6.126;2024-03-29T12:01:16;19.70;98.50
15625;DHT22;7912;51.376;6.126;2024-03-29T12:03:44;19.60;98.40
15625;DHT22;7912;51.376;6.126;2024-03-29T12:06:10;19.60;98.30
15625;DHT22;7912;51.376;6.126;2024-03-29T12:08:39;19.60;98.70
15625;DHT22;7912;51.376;6.126;2024-03-29T12:11:07;19.60;98.40
15625;DHT22;7912;51.376;6.126;2024-03-29T12:13:33;19.60;98.40
15625;DHT22;7912;51.376;6.126;2024-03-29T12:16:00;19.60;98.50
15625;DHT22;7912;51.376;6.126;2024-03-29T12:18:27;19.70;98.40
15625;DHT22;7912;51.376;6.126;2024-03-29T12:20:55;19.70;98.10
15625;DHT22;7912;51.376;6.126;2024-03-29T12:23:22;19.70;98.00
15625;DHT22;7912;51.376;6.126;2024-03-29T12:25:49;19.80;98.10
15625;DHT22;7912;51.376;6.126;2024-03-29T12:28:17;19.80;98.00
15625;DHT22;7912;51.376;6.126;2024-03-29T12:30:46;19.80;98.30
15625;DHT22;7912;51.376;6.126;2024-03-29T12:33:15;19.90;98.30
15625;DHT22;7912;51.376;6.126;2024-03-29T12:35:52;20.10;98.00
15625;DHT22;7912;51.376;6.126;2024-03-29T12:38:20;20.30;96.90
15625;DHT22;7912;51.376;6.126;2024-03-29T12:40:49;20.50;96.90
15625;DHT22;7912;51.376;6.126;2024-03-29T12:43:23;20.50;96.90
15625;DHT22;7912;51.376;6.126;2024-03-29T12:45:50;20.60;96.60
15625;DHT22;7912;51.376;6.126;2024-03-29T12:48:19;20.70;96.80
15625;DHT22;7912;51.376;6.126;2024-03-29T12:50:47;20.90;97.50
15625;DHT22;7912;51.376;6.126;2024-03-29T12:53:15;21.00;97.00
15625;DHT22;7912;51.376;6.126;2024-03-29T12:55:46;21.20;96.60
15625;DHT22;7912;51.376;6.126;2024-03-29T12:58:15;21.40;96.00
15625;DHT22;7912;51.376;6.126;2024-03-29T13:00:51;21.60;95.50
15625;DHT22;7912;51.376;6.126;2024-03-29T13:03:17;21.80;95.10
15625;DHT22;7912;51.376;6.126;2024-03-29T13:05:43;22.00;94.70
15625;DHT22;7912;51.376;6.126;2024-03-29T13:08:14;22.30;94.70
15625;DHT22;7912;51.376;6.126;2024-03-29T13:10:43;22.50;93.30
15625;DHT22;7912;51.376;6.126;2024-03-29T13:13:10;22.70;93.30
15625;DHT22;7912;51.376;6.126;2024-03-29T13:15:38;23.00;92.70
15625;DHT22;7912;51.376;6.126;2024-03-29T13:18:06;23.20;91.80
15625;DHT22;7912;51.376;6.126;2024-03-29T13:20:35;23.40;91.10
15625;DHT22;7912;51.376;6.126;2024-03-29T13:23:06;23.50;90.40
15625;DHT22;7912;51.376;6.126;2024-03-29T13:25:32;23.60;90.30
15625;DHT22;7912;51.376;6.126;2024-03-29T13:28:02;23.60;90.10
15625;DHT22;7912;51.376;6.126;2024-03-29T13:30:28;23.70;90.20
15625;DHT22;7912;51.376;6.126;2024-03-29T13:32:57;23.90;90.10
15625;DHT22;7912;51.376;6.126;2024-03-29T13:35:23;24.00;89.50
15625;DHT22;7912;51.376;6.126;2024-03-29T13:37:50;24.20;88.40
15625;DHT22;7912;51.376;6.126;2024-03-29T13:40:22;24.30;86.50
15625;DHT22;7912;51.376;6.126;2024-03-29T13:42:50;24.30;85.40
15625;DHT22;7912;51.376;6.126;2024-03-29T13:45:17;24.30;85.90
15625;DHT22;7912;51.376;6.126;2024-03-29T13:47:45;24.40;86.50
15625;DHT22;7912;51.376;6.126;2024-03-29T13:50:13;24.60;85.40
15625;DHT22;7912;51.376;6.126;2024-03-29T13:52:41;24.70;85.20
15625;DHT22;7912;51.376;6.126;2024-03-29T13:55:09;24.90;84.30
15625;DHT22;7912;51.376;6.126;2024-03-29T13:57:36;25.10;83.30
15625;DHT22;7912;51.376;6.126;2024-03-29T14:00:03;25.30;81.30
15625;DHT22;7912;51.376;6.126;2024-03-29T14:02:31;25.50;79.90
15625;DHT22;7912;51.376;6.126;2024-03-29T14:04:58;25.60;79.50
15625;DHT22;7912;51.376;6.126;2024-03-29T14:07:24;25.70;77.70
15625;DHT22;7912;51.376;6.126;2024-03-29T14:09:51;25.90;76.80
15625;DHT22;7912;51.376;6.126;2024-03-29T14:12:18;25.90;75.70
15625;DHT22;7912;51.376;6.126;2024-03-29T14:14:47;25.90;74.00
15625;DHT22;7912;51.376;6.126;2024-03-29T14:17:17;25.90;73.20
15625;DHT22;7912;51.376;6.126;2024-03-29T14:19:43;25.90;73.00
15625;DHT22;7912;51.376;6.126;2024-03-29T14:22:10;25.70;72.20
15625;DHT22;7912;51.376;6.126;2024-03-29T14:24:41;25.50;72.10
15625;DHT22;7912;51.376;6.126;2024-03-29T14:27:08;25.40;72.10
15625;DHT22;7912;51.376;6.126;2024-03-29T14:29:35;25.20;72.20
15625;DHT22;7912;51.376;6.126;2024-03-29T14:32:02;24.90;72.30
15625;DHT22;7912;51.376;6.126;2024-03-29T14:34:29;24.70;72.70
15625;DHT22;7912;51.376;6.126;2024-03-29T14:37:00;24.50;72.80
15625;DHT22;7912;51.376;6.126;2024-03-29T14:39:27;24.30;73.30
15625;DHT22;7912;51.376;6.126;2024-03-29T14:41:53;24.10;74.20
15625;DHT22;7912;51.376;6.126;2024-03-29T14:44:20;23.90;74.90
15625;DHT22;7912;51.376;6.126;2024-03-29T14:46:47;23.70;74.60
15625;DHT22;7912;51.376;6.126;2024-03-29T14:49:14;23.50;75.30
15625;DHT22;7912;51.376;6.126;2024-03-29T14:51:43;23.40;75.70
15625;DHT22;7912;51.376;6.126;2024-03-29T14:54:10;23.20;75.70
15625;DHT22;7912;51.376;6.126;2024-03-29T14:56:37;23.10;75.90
15625;DHT22;7912;51.376;6.126;2024-03-29T14:59:04;23.00;76.00
15625;DHT22;7912;51.376;6.126;2024-03-29T15:01:32;22.80;76.40
15625;DHT22;7912;51.376;6.126;2024-03-29T15:03:59;22.60;77.30
15625;DHT22;7912;51.376;6.126;2024-03-29T15:06:25;22.50;79.30
15625;DHT22;7912;51.376;6.126;2024-03-29T15:08:54;22.40;78.80
15625;DHT22;7912;51.376;6.126;2024-03-29T15:11:24;22.40;78.70
15625;DHT22;7912;51.376;6.126;2024-03-29T15:13:51;22.30;78.40
15625;DHT22;7912;51.376;6.126;2024-03-29T15:16:17;22.30;78.30
15625;DHT22;7912;51.376;6.126;2024-03-29T15:18:44;22.20;78.40
15625;DHT22;7912;51.376;6.126;2024-03-29T15:21:14;22.00;78.90
15625;DHT22;7912;51.376;6.126;2024-03-29T15:23:40;21.90;79.80
15625;DHT22;7912;51.376;6.126;2024-03-29T15:26:06;21.70;80.30
15625;DHT22;7912;51.376;6.126;2024-03-29T15:28:33;21.60;80.80
15625;DHT22;7912;51.376;6.126;2024-03-29T15:31:19;21.50;81.40
15625;DHT22;7912;51.376;6.126;2024-03-29T15:33:48;21.50;82.20
15625;DHT22;7912;51.376;6.126;2024-03-29T15:36:16;21.40;82.70
15625;DHT22;7912;51.376;6.126;2024-03-29T15:38:43;21.50;83.60
15625;DHT22;7912;51.376;6.126;2024-03-29T15:41:10;21.50;83.70
15625;DHT22;7912;51.376;6.126;2024-03-29T15:43:37;21.60;83.70
15625;DHT22;7912;51.376;6.126;2024-03-29T15:46:04;21.70;83.50
15625;DHT22;7912;51.376;6.126;2024-03-29T15:48:30;21.70;83.30
15625;DHT22;7912;51.376;6.126;2024-03-29T15:50:57;21.70;83.30
15625;DHT22;7912;51.376;6.126;2024-03-29T15:53:33;21.60;83.60
15625;DHT22;7912;51.376;6.126;2024-03-29T15:56:06;21.60;83.40
15625;DHT22;7912;51.376;6.126;2024-03-29T15:58:56;21.50;83.50
15625;DHT22;7912;51.376;6.126;2024-03-29T16:01:30;21.40;84.30
15625;DHT22;7912;51.376;6.126;2024-03-29T16:03:56;21.40;84.70
15625;DHT22;7912;51.376;6.126;2024-03-29T16:06:22;21.30;84.80
15625;DHT22;7912;51.376;6.126;2024-03-29T16:08:49;21.20;85.20
15625;DHT22;7912;51.376;6.126;2024-03-29T16:11:15;21.20;85.40